Time;durP1;ratioP1;P1;durP2;ratioP2;P2;SDS_P1;SDS_P2;PMS_P1;PMS_P2;Temp;Humidity;BMP_temperature;BMP_pressure;BME280_temperature;BME280_humidity;BME280_pressure;Samples;Min_cycle;Max_cycle;Signal;HPM_P1;HPM_P2
2022/03/20 00:00:26;;;;;;;25.6;15.75;;;;;;;1.37;42.7168;96205.64;;;;
2022/03/20 00:01:27;;;;;;;25.6;15.75;;;;;;;1.37;42.7168;96205.64;;;;
2022/03/20 00:02:30;;;;;;;25.6;15.75;;;;;;;1.37;42.7168;96205.64;;;;
2022/03/20 00:03:31;;;;;;;25.6;15.75;;;;;;;1.37;42.7168;96205.64;;;;
2022/03/20 00:04:32;;;;;;;27.65;17.1;;;;;;;1.23;42.90332;96201.81;;;;
2022/03/20 00:05:34;;;;;;;27.65;17.1;;;;;;;1.23;42.90332;96201.81;;;;
2022/03/20 00:06:35;;;;;;;27.65;17.1;;;;;;;1.23;42.90332;96201.81;;;;
2022/03/20 00:07:38;;;;;;;27.65;17.1;;;;;;;1.23;42.90332;96201.81;;;;
2022/03/20 00:08:38;;;;;;;27.65;17.1;;;;;;;1.23;42.90332;96201.81;;;;
2022/03/20 00:09:39;;;;;;;27.65;17.1;;;;;;;1.23;42.90332;96201.81;;;;
2022/03/20 00:10:40;;;;;;;27.65;17.1;;;;;;;1.23;42.90332;96201.81;;;;
2022/03/20 00:11:43;;;;;;;27.65;17.1;;;;;;;1.23;42.90332;96201.81;;;;
2022/03/20 00:12:44;;;;;;;27.65;17.1;;;;;;;1.23;42.90332;96201.81;;;;
2022/03/20 00:13:44;;;;;;;27.65;17.1;;;;;;;1.23;42.90332;96201.81;;;;
2022/03/20 00:14:45;;;;;;;27.45;16.4;;;;;;;1.14;43.11621;96200.09;;;;
2022/03/20 00:15:46;;;;;;;27.45;16.4;;;;;;;1.14;43.11621;96200.09;;;;
2022/03/20 00:16:49;;;;;;;27.45;16.4;;;;;;;1.14;43.11621;96200.09;;;;
2022/03/20 00:17:49;;;;;;;27.45;16.4;;;;;;;1.14;43.11621;96200.09;;;;
2022/03/20 00:18:50;;;;;;;27.45;16.4;;;;;;;1.14;43.11621;96200.09;;;;
2022/03/20 00:19:50;;;;;;;27.45;16.4;;;;;;;1.14;43.11621;96200.09;;;;
2022/03/20 00:20:51;;;;;;;27.45;16.4;;;;;;;1.14;43.11621;96200.09;;;;
2022/03/20 00:21:54;;;;;;;27.45;16.4;;;;;;;1.14;43.11621;96200.09;;;;
2022/03/20 00:22:56;;;;;;;27.45;16.4;;;;;;;1.14;43.11621;96200.09;;;;
2022/03/20 00:23:56;;;;;;;27.45;16.4;;;;;;;1.14;43.11621;96200.09;;;;
2022/03/20 00:24:57;;;;;;;26.45;17.05;;;;;;;1.09;43.34375;96199.66;;;;
2022/03/20 00:25:58;;;;;;;26.45;17.05;;;;;;;1.09;43.34375;96199.66;;;;
2022/03/20 00:26:58;;;;;;;26.45;17.05;;;;;;;1.09;43.34375;96199.66;;;;
2022/03/20 00:27:59;;;;;;;26.45;17.05;;;;;;;1.09;43.34375;96199.66;;;;
2022/03/20 00:29:00;;;;;;;26.45;17.05;;;;;;;1.09;43.34375;96199.66;;;;
2022/03/20 00:30:01;;;;;;;26.45;17.05;;;;;;;1.09;43.34375;96199.66;;;;
2022/03/20 00:31:02;;;;;;;26.45;17.05;;;;;;;1.09;43.34375;96199.66;;;;
2022/03/20 00:32:02;;;;;;;26.45;17.05;;;;;;;1.09;43.34375;96199.66;;;;
2022/03/20 00:33:05;;;;;;;26.45;17.05;;;;;;;1.09;43.34375;96199.66;;;;
2022/03/20 00:34:07;;;;;;;26.45;17.05;;;;;;;1.09;43.34375;96199.66;;;;
2022/03/20 00:35:07;;;;;;;26.45;17.05;;;;;;;1.09;43.34375;96199.66;;;;
2022/03/20 00:36:08;;;;;;;26.45;17.05;;;;;;;1.09;43.34375;96199.66;;;;
2022/03/20 00:37:08;;;;;;;26.45;17.05;;;;;;;1.09;43.34375;96199.66;;;;
2022/03/20 00:38:09;;;;;;;26.45;17.05;;;;;;;1.09;43.34375;96199.66;;;;
2022/03/20 00:39:10;;;;;;;26.45;17.05;;;;;;;1.09;43.34375;96199.66;;;;
2022/03/20 00:40:10;;;;;;;26.45;17.05;;;;;;;1.09;43.34375;96199.66;;;;
2022/03/20 00:41:11;;;;;;;26.45;17.05;;;;;;;1.09;43.34375;96199.66;;;;
2022/03/20 00:42:11;;;;;;;26.45;17.05;;;;;;;1.09;43.34375;96199.66;;;;
2022/03/20 00:43:12;;;;;;;26.45;17.05;;;;;;;1.09;43.34375;96199.66;;;;
2022/03/20 00:44:12;;;;;;;26.45;17.05;;;;;;;1.09;43.34375;96199.66;;;;
2022/03/20 00:45:13;;;;;;;26.45;17.05;;;;;;;1.09;43.34375;96199.66;;;;
2022/03/20 00:46:13;;;;;;;26.45;17.05;;;;;;;1.09;43.34375;96199.66;;;;
2022/03/20 00:47:14;;;;;;;29.1;17.35;;;;;;;0.83;43.56055;96185.5;;;;
2022/03/20 00:48:14;;;;;;;29.1;17.35;;;;;;;0.83;43.56055;96185.5;;;;
2022/03/20 00:49:15;;;;;;;29.1;17.35;;;;;;;0.83;43.56055;96185.5;;;;
2022/03/20 00:50:16;;;;;;;29.1;17.35;;;;;;;0.83;43.56055;96185.5;;;;
2022/03/20 00:51:17;;;;;;;29.1;17.35;;;;;;;0.83;43.56055;96185.5;;;;
2022/03/20 00:52:17;;;;;;;29.1;17.35;;;;;;;0.83;43.56055;96185.5;;;;
2022/03/20 00:53:18;;;;;;;29.1;17.35;;;;;;;0.83;43.56055;96185.5;;;;
2022/03/20 00:54:18;;;;;;;29.1;17.35;;;;;;;0.83;43.56055;96185.5;;;;
2022/03/20 00:55:19;;;;;;;29.1;17.35;;;;;;;0.83;43.56055;96185.5;;;;
2022/03/20 00:56:20;;;;;;;29.1;17.35;;;;;;;0.83;43.56055;96185.5;;;;
2022/03/20 00:57:20;;;;;;;27.65;17.35;;;;;;;0.62;43.69629;96188.56;;;;
2022/03/20 00:58:21;;;;;;;27.65;17.35;;;;;;;0.62;43.69629;96188.56;;;;
2022/03/20 00:59:21;;;;;;;27.65;17.35;;;;;;;0.62;43.69629;96188.56;;;;
2022/03/20 01:00:22;;;;;;;27.65;17.35;;;;;;;0.62;43.69629;96188.56;;;;
2022/03/20 01:01:22;;;;;;;27.65;17.35;;;;;;;0.62;43.69629;96188.56;;;;
2022/03/20 01:02:23;;;;;;;27.65;17.35;;;;;;;0.62;43.69629;96188.56;;;;
2022/03/20 01:03:23;;;;;;;27.65;17.35;;;;;;;0.62;43.69629;96188.56;;;;
2022/03/20 01:04:25;;;;;;;27.65;17.35;;;;;;;0.62;43.69629;96188.56;;;;
2022/03/20 01:05:25;;;;;;;27.65;17.35;;;;;;;0.62;43.69629;96188.56;;;;
2022/03/20 01:06:26;;;;;;;27.65;17.35;;;;;;;0.62;43.69629;96188.56;;;;
2022/03/20 01:07:26;;;;;;;27.65;17.35;;;;;;;0.62;43.69629;96188.56;;;;
2022/03/20 01:08:27;;;;;;;29.55;17.65;;;;;;;0.42;43.85645;96190.97;;;;
2022/03/20 01:09:27;;;;;;;29.55;17.65;;;;;;;0.42;43.85645;96190.97;;;;
2022/03/20 01:10:28;;;;;;;29.55;17.65;;;;;;;0.42;43.85645;96190.97;;;;
2022/03/20 01:11:29;;;;;;;29.55;17.65;;;;;;;0.42;43.85645;96190.97;;;;
2022/03/20 01:12:29;;;;;;;29.55;17.65;;;;;;;0.42;43.85645;96190.97;;;;
2022/03/20 01:13:30;;;;;;;29.55;17.65;;;;;;;0.42;43.85645;96190.97;;;;
2022/03/20 01:14:31;;;;;;;29.55;17.65;;;;;;;0.42;43.85645;96190.97;;;;
2022/03/20 01:15:31;;;;;;;29.55;17.65;;;;;;;0.42;43.85645;96190.97;;;;
2022/03/20 01:16:32;;;;;;;29.55;17.65;;;;;;;0.42;43.85645;96190.97;;;;
2022/03/20 01:17:32;;;;;;;29.55;17.65;;;;;;;0.42;43.85645;96190.97;;;;
2022/03/20 01:18:33;;;;;;;29.55;17.65;;;;;;;0.42;43.85645;96190.97;;;;
2022/03/20 01:19:34;;;;;;;29.55;17.65;;;;;;;0.42;43.85645;96190.97;;;;
2022/03/20 01:20:34;;;;;;;29.55;17.65;;;;;;;0.42;43.85645;96190.97;;;;
2022/03/20 01:21:35;;;;;;;29.55;17.65;;;;;;;0.42;43.85645;96190.97;;;;
2022/03/20 01:22:36;;;;;;;29.55;17.65;;;;;;;0.42;43.85645;96190.97;;;;
2022/03/20 01:23:38;;;;;;;29.55;17.65;;;;;;;0.42;43.85645;96190.97;;;;
2022/03/20 01:24:39;;;;;;;29.55;17.65;;;;;;;0.42;43.85645;96190.97;;;;
2022/03/20 01:25:40;;;;;;;29.55;17.65;;;;;;;0.42;43.85645;96190.97;;;;
2022/03/20 01:26:40;;;;;;;29.55;17.65;;;;;;;0.42;43.85645;96190.97;;;;
2022/03/20 01:27:42;;;;;;;29.55;17.65;;;;;;;0.42;43.85645;96190.97;;;;
2022/03/20 01:28:43;;;;;;;29.55;17.65;;;;;;;0.42;43.85645;96190.97;;;;
2022/03/20 01:29:43;;;;;;;29.7;17;;;;;;;0.22;44.2041;96193.91;;;;
2022/03/20 01:30:44;;;;;;;29.7;17;;;;;;;0.22;44.2041;96193.91;;;;
2022/03/20 01:31:45;;;;;;;29.7;17;;;;;;;0.22;44.2041;96193.91;;;;
2022/03/20 01:32:46;;;;;;;29.7;17;;;;;;;0.22;44.2041;96193.91;;;;
2022/03/20 01:33:46;;;;;;;29.7;17;;;;;;;0.22;44.2041;96193.91;;;;
2022/03/20 01:34:47;;;;;;;29.7;17;;;;;;;0.22;44.2041;96193.91;;;;
2022/03/20 01:35:47;;;;;;;29.7;17;;;;;;;0.22;44.2041;96193.91;;;;
2022/03/20 01:36:49;;;;;;;29.7;17;;;;;;;0.22;44.2041;96193.91;;;;
2022/03/20 01:37:50;;;;;;;29.7;17;;;;;;;0.22;44.2041;96193.91;;;;
2022/03/20 01:38:50;;;;;;;29.7;17;;;;;;;0.22;44.2041;96193.91;;;;
2022/03/20 01:39:52;;;;;;;27.8;16.85;;;;;;;0.07;44.45117;96194.9;;;;
2022/03/20 01:40:53;;;;;;;27.8;16.85;;;;;;;0.07;44.45117;96194.9;;;;
2022/03/20 01:41:53;;;;;;;27.8;16.85;;;;;;;0.07;44.45117;96194.9;;;;
2022/03/20 01:42:54;;;;;;;27.8;16.85;;;;;;;0.07;44.45117;96194.9;;;;
2022/03/20 01:43:55;;;;;;;27.8;16.85;;;;;;;0.07;44.45117;96194.9;;;;
2022/03/20 01:44:57;;;;;;;27.8;16.85;;;;;;;0.07;44.45117;96194.9;;;;
2022/03/20 01:45:58;;;;;;;27.8;16.85;;;;;;;0.07;44.45117;96194.9;;;;
2022/03/20 01:46:59;;;;;;;27.8;16.85;;;;;;;0.07;44.45117;96194.9;;;;
2022/03/20 01:47:59;;;;;;;27.8;16.85;;;;;;;0.07;44.45117;96194.9;;;;
2022/03/20 01:49:00;;;;;;;27.8;16.85;;;;;;;0.07;44.45117;96194.9;;;;
2022/03/20 01:50:00;;;;;;;27.8;16.85;;;;;;;0.07;44.45117;96194.9;;;;
2022/03/20 01:51:01;;;;;;;27.8;16.85;;;;;;;0.07;44.45117;96194.9;;;;
2022/03/20 01:52:24;;;;;;;27.8;16.85;;;;;;;0.07;44.45117;96194.9;;;;
2022/03/20 01:53:26;;;;;;;27.8;16.85;;;;;;;0.07;44.45117;96194.9;;;;
2022/03/20 01:54:26;;;;;;;27.8;16.85;;;;;;;0.07;44.45117;96194.9;;;;
2022/03/20 01:55:28;;;;;;;27.8;16.85;;;;;;;0.07;44.45117;96194.9;;;;
2022/03/20 01:56:32;;;;;;;27.8;16.85;;;;;;;0.07;44.45117;96194.9;;;;
2022/03/20 01:57:36;;;;;;;27.8;16.85;;;;;;;0.07;44.45117;96194.9;;;;
2022/03/20 01:58:39;;;;;;;27.8;16.85;;;;;;;0.07;44.45117;96194.9;;;;
2022/03/20 01:59:39;;;;;;;27.8;16.85;;;;;;;0.07;44.45117;96194.9;;;;
2022/03/20 02:00:40;;;;;;;27.8;16.85;;;;;;;0.07;44.45117;96194.9;;;;
2022/03/20 02:01:40;;;;;;;28.4;17.4;;;;;;;-0.09;44.73047;96201.79;;;;
2022/03/20 02:02:41;;;;;;;28.4;17.4;;;;;;;-0.09;44.73047;96201.79;;;;
2022/03/20 02:03:42;;;;;;;28.4;17.4;;;;;;;-0.09;44.73047;96201.79;;;;
2022/03/20 02:04:42;;;;;;;28.4;17.4;;;;;;;-0.09;44.73047;96201.79;;;;
2022/03/20 02:05:43;;;;;;;28.4;17.4;;;;;;;-0.09;44.73047;96201.79;;;;
2022/03/20 02:06:43;;;;;;;28.4;17.4;;;;;;;-0.09;44.73047;96201.79;;;;
2022/03/20 02:07:45;;;;;;;28.4;17.4;;;;;;;-0.09;44.73047;96201.79;;;;
2022/03/20 02:08:46;;;;;;;28.4;17.4;;;;;;;-0.09;44.73047;96201.79;;;;
2022/03/20 02:09:46;;;;;;;28.4;17.4;;;;;;;-0.09;44.73047;96201.79;;;;
2022/03/20 02:10:47;;;;;;;28.4;17.4;;;;;;;-0.09;44.73047;96201.79;;;;
2022/03/20 02:11:47;;;;;;;29.85;16.55;;;;;;;-0.21;44.91602;96189.78;;;;
2022/03/20 02:12:48;;;;;;;29.85;16.55;;;;;;;-0.21;44.91602;96189.78;;;;
2022/03/20 02:13:49;;;;;;;29.85;16.55;;;;;;;-0.21;44.91602;96189.78;;;;
2022/03/20 02:14:50;;;;;;;29.85;16.55;;;;;;;-0.21;44.91602;96189.78;;;;
2022/03/20 02:15:51;;;;;;;29.85;16.55;;;;;;;-0.21;44.91602;96189.78;;;;
2022/03/20 02:16:52;;;;;;;29.85;16.55;;;;;;;-0.21;44.91602;96189.78;;;;
2022/03/20 02:17:52;;;;;;;29.85;16.55;;;;;;;-0.21;44.91602;96189.78;;;;
2022/03/20 02:18:54;;;;;;;29.85;16.55;;;;;;;-0.21;44.91602;96189.78;;;;
2022/03/20 02:19:55;;;;;;;29.85;16.55;;;;;;;-0.21;44.91602;96189.78;;;;
2022/03/20 02:20:57;;;;;;;29.85;16.55;;;;;;;-0.21;44.91602;96189.78;;;;
2022/03/20 02:22:01;;;;;;;29.85;16.55;;;;;;;-0.21;44.91602;96189.78;;;;
2022/03/20 02:23:01;;;;;;;30.25;17.45;;;;;;;-0.3;45.10742;96184.88;;;;
2022/03/20 02:24:02;;;;;;;30.25;17.45;;;;;;;-0.3;45.10742;96184.88;;;;
2022/03/20 02:25:04;;;;;;;30.25;17.45;;;;;;;-0.3;45.10742;96184.88;;;;
2022/03/20 02:26:05;;;;;;;30.25;17.45;;;;;;;-0.3;45.10742;96184.88;;;;
2022/03/20 02:27:06;;;;;;;30.25;17.45;;;;;;;-0.3;45.10742;96184.88;;;;
2022/03/20 02:28:09;;;;;;;30.25;17.45;;;;;;;-0.3;45.10742;96184.88;;;;
2022/03/20 02:29:10;;;;;;;30.25;17.45;;;;;;;-0.3;45.10742;96184.88;;;;
2022/03/20 02:30:13;;;;;;;30.25;17.45;;;;;;;-0.3;45.10742;96184.88;;;;
2022/03/20 02:31:15;;;;;;;30.25;17.45;;;;;;;-0.3;45.10742;96184.88;;;;
2022/03/20 02:32:16;;;;;;;30.25;17.45;;;;;;;-0.3;45.10742;96184.88;;;;
2022/03/20 02:33:23;;;;;;;27.45;16.2;;;;;;;-0.34;45.3877;96172.88;;;;
2022/03/20 02:34:24;;;;;;;27.45;16.2;;;;;;;-0.34;45.3877;96172.88;;;;
2022/03/20 02:35:26;;;;;;;27.45;16.2;;;;;;;-0.34;45.3877;96172.88;;;;
2022/03/20 02:36:27;;;;;;;27.45;16.2;;;;;;;-0.34;45.3877;96172.88;;;;
2022/03/20 02:37:28;;;;;;;27.45;16.2;;;;;;;-0.34;45.3877;96172.88;;;;
2022/03/20 02:38:29;;;;;;;27.45;16.2;;;;;;;-0.34;45.3877;96172.88;;;;
2022/03/20 02:39:29;;;;;;;27.45;16.2;;;;;;;-0.34;45.3877;96172.88;;;;
2022/03/20 02:40:31;;;;;;;27.45;16.2;;;;;;;-0.34;45.3877;96172.88;;;;
2022/03/20 02:41:32;;;;;;;27.45;16.2;;;;;;;-0.34;45.3877;96172.88;;;;
2022/03/20 02:42:35;;;;;;;27.45;16.2;;;;;;;-0.34;45.3877;96172.88;;;;
2022/03/20 02:43:38;;;;;;;27.45;16.2;;;;;;;-0.34;45.3877;96172.88;;;;
2022/03/20 02:44:48;;;;;;;30.8;17.05;;;;;;;-0.38;45.71875;96167.13;;;;
2022/03/20 02:45:52;;;;;;;30.8;17.05;;;;;;;-0.38;45.71875;96167.13;;;;
2022/03/20 02:46:53;;;;;;;30.8;17.05;;;;;;;-0.38;45.71875;96167.13;;;;
2022/03/20 02:47:53;;;;;;;30.8;17.05;;;;;;;-0.38;45.71875;96167.13;;;;
2022/03/20 02:48:54;;;;;;;30.8;17.05;;;;;;;-0.38;45.71875;96167.13;;;;
2022/03/20 02:49:55;;;;;;;30.8;17.05;;;;;;;-0.38;45.71875;96167.13;;;;
2022/03/20 02:50:57;;;;;;;30.8;17.05;;;;;;;-0.38;45.71875;96167.13;;;;
2022/03/20 02:51:58;;;;;;;30.8;17.05;;;;;;;-0.38;45.71875;96167.13;;;;
2022/03/20 02:52:58;;;;;;;30.8;17.05;;;;;;;-0.38;45.71875;96167.13;;;;
2022/03/20 02:54:01;;;;;;;30.8;17.05;;;;;;;-0.38;45.71875;96167.13;;;;
2022/03/20 02:55:02;;;;;;;30.8;17.05;;;;;;;-0.38;45.71875;96167.13;;;;
2022/03/20 02:56:04;;;;;;;30.8;17.05;;;;;;;-0.38;45.71875;96167.13;;;;
2022/03/20 02:57:05;;;;;;;30.8;17.05;;;;;;;-0.38;45.71875;96167.13;;;;
2022/03/20 02:58:06;;;;;;;30.8;17.05;;;;;;;-0.38;45.71875;96167.13;;;;
2022/03/20 02:59:10;;;;;;;30.8;17.05;;;;;;;-0.38;45.71875;96167.13;;;;
2022/03/20 03:00:11;;;;;;;30.8;17.05;;;;;;;-0.38;45.71875;96167.13;;;;
2022/03/20 03:01:11;;;;;;;30.8;17.05;;;;;;;-0.38;45.71875;96167.13;;;;
2022/03/20 03:02:13;;;;;;;30.8;17.05;;;;;;;-0.38;45.71875;96167.13;;;;
2022/03/20 03:03:16;;;;;;;30.8;17.05;;;;;;;-0.38;45.71875;96167.13;;;;
2022/03/20 03:04:18;;;;;;;30.8;17.05;;;;;;;-0.38;45.71875;96167.13;;;;
2022/03/20 03:05:19;;;;;;;29.2;17.4;;;;;;;-0.32;46.00977;96194.8;;;;
2022/03/20 03:06:22;;;;;;;29.2;17.4;;;;;;;-0.32;46.00977;96194.8;;;;
2022/03/20 03:07:22;;;;;;;29.2;17.4;;;;;;;-0.32;46.00977;96194.8;;;;
2022/03/20 03:13:36;;;;;;;29.2;17.4;;;;;;;-0.32;46.00977;96194.8;;;;
2022/03/20 03:15:43;;;;;;;29.2;17.4;;;;;;;-0.32;46.00977;96194.8;;;;
2022/03/20 03:16:43;;;;;;;29.15;16.8;;;;;;;-0.36;46.06836;96199.24;;;;
2022/03/20 03:17:44;;;;;;;29.15;16.8;;;;;;;-0.36;46.06836;96199.24;;;;
2022/03/20 03:18:45;;;;;;;29.15;16.8;;;;;;;-0.36;46.06836;96199.24;;;;
2022/03/20 03:19:47;;;;;;;29.15;16.8;;;;;;;-0.36;46.06836;96199.24;;;;
2022/03/20 03:20:47;;;;;;;29.15;16.8;;;;;;;-0.36;46.06836;96199.24;;;;
2022/03/20 03:21:49;;;;;;;29.15;16.8;;;;;;;-0.36;46.06836;96199.24;;;;
2022/03/20 03:22:49;;;;;;;29.15;16.8;;;;;;;-0.36;46.06836;96199.24;;;;
2022/03/20 03:23:49;;;;;;;29.15;16.8;;;;;;;-0.36;46.06836;96199.24;;;;
2022/03/20 03:24:50;;;;;;;29.15;16.8;;;;;;;-0.36;46.06836;96199.24;;;;
2022/03/20 03:25:51;;;;;;;29.15;16.8;;;;;;;-0.36;46.06836;96199.24;;;;
2022/03/20 03:26:52;;;;;;;28.05;16.15;;;;;;;-0.53;46.15625;96214.09;;;;
2022/03/20 03:27:52;;;;;;;28.05;16.15;;;;;;;-0.53;46.15625;96214.09;;;;
2022/03/20 03:28:53;;;;;;;28.05;16.15;;;;;;;-0.53;46.15625;96214.09;;;;
2022/03/20 03:29:54;;;;;;;28.05;16.15;;;;;;;-0.53;46.15625;96214.09;;;;
2022/03/20 03:30:54;;;;;;;28.05;16.15;;;;;;;-0.53;46.15625;96214.09;;;;
2022/03/20 03:31:55;;;;;;;28.05;16.15;;;;;;;-0.53;46.15625;96214.09;;;;
2022/03/20 03:32:55;;;;;;;28.05;16.15;;;;;;;-0.53;46.15625;96214.09;;;;
2022/03/20 03:39:29;;;;;;;28.84999;17.3;;;;;;;-0.75;46.39355;96222.82;;;;
2022/03/20 03:40:30;;;;;;;28.84999;17.3;;;;;;;-0.75;46.39355;96222.82;;;;
2022/03/20 03:41:30;;;;;;;28.84999;17.3;;;;;;;-0.75;46.39355;96222.82;;;;
2022/03/20 03:42:31;;;;;;;28.84999;17.3;;;;;;;-0.75;46.39355;96222.82;;;;
2022/03/20 03:43:31;;;;;;;28.84999;17.3;;;;;;;-0.75;46.39355;96222.82;;;;
2022/03/20 03:44:32;;;;;;;28.84999;17.3;;;;;;;-0.75;46.39355;96222.82;;;;
2022/03/20 03:45:32;;;;;;;28.84999;17.3;;;;;;;-0.75;46.39355;96222.82;;;;
2022/03/20 03:46:34;;;;;;;28.84999;17.3;;;;;;;-0.75;46.39355;96222.82;;;;
2022/03/20 03:47:34;;;;;;;28.84999;17.3;;;;;;;-0.75;46.39355;96222.82;;;;
2022/03/20 03:48:35;;;;;;;26.5;16.3;;;;;;;-0.89;46.66211;96225.09;;;;
2022/03/20 03:49:35;;;;;;;26.5;16.3;;;;;;;-0.89;46.66211;96225.09;;;;
2022/03/20 03:50:36;;;;;;;26.5;16.3;;;;;;;-0.89;46.66211;96225.09;;;;
2022/03/20 03:51:38;;;;;;;26.5;16.3;;;;;;;-0.89;46.66211;96225.09;;;;
2022/03/20 03:52:39;;;;;;;26.5;16.3;;;;;;;-0.89;46.66211;96225.09;;;;
2022/03/20 03:53:39;;;;;;;26.5;16.3;;;;;;;-0.89;46.66211;96225.09;;;;
2022/03/20 03:54:40;;;;;;;26.5;16.3;;;;;;;-0.89;46.66211;96225.09;;;;
2022/03/20 03:55:43;;;;;;;26.5;16.3;;;;;;;-0.89;46.66211;96225.09;;;;
2022/03/20 03:56:45;;;;;;;26.5;16.3;;;;;;;-0.89;46.66211;96225.09;;;;
2022/03/20 03:57:45;;;;;;;26.5;16.3;;;;;;;-0.89;46.66211;96225.09;;;;
2022/03/20 03:58:47;;;;;;;27.35;16.2;;;;;;;-1.01;46.77539;96230.13;;;;
2022/03/20 03:59:48;;;;;;;27.35;16.2;;;;;;;-1.01;46.77539;96230.13;;;;
2022/03/20 04:00:48;;;;;;;27.35;16.2;;;;;;;-1.01;46.77539;96230.13;;;;
2022/03/20 04:01:49;;;;;;;27.35;16.2;;;;;;;-1.01;46.77539;96230.13;;;;
2022/03/20 04:02:49;;;;;;;27.35;16.2;;;;;;;-1.01;46.77539;96230.13;;;;
2022/03/20 04:03:50;;;;;;;27.35;16.2;;;;;;;-1.01;46.77539;96230.13;;;;
2022/03/20 04:04:50;;;;;;;27.35;16.2;;;;;;;-1.01;46.77539;96230.13;;;;
2022/03/20 04:05:51;;;;;;;27.35;16.2;;;;;;;-1.01;46.77539;96230.13;;;;
2022/03/20 04:06:51;;;;;;;27.35;16.2;;;;;;;-1.01;46.77539;96230.13;;;;
2022/03/20 04:07:52;;;;;;;27.35;16.2;;;;;;;-1.01;46.77539;96230.13;;;;
2022/03/20 04:08:53;;;;;;;27.35;16.2;;;;;;;-1.01;46.77539;96230.13;;;;
2022/03/20 04:09:55;;;;;;;27.5;16.65;;;;;;;-1.13;46.98242;96237.47;;;;
2022/03/20 04:10:55;;;;;;;27.5;16.65;;;;;;;-1.13;46.98242;96237.47;;;;
2022/03/20 04:11:56;;;;;;;27.5;16.65;;;;;;;-1.13;46.98242;96237.47;;;;
2022/03/20 04:12:57;;;;;;;27.5;16.65;;;;;;;-1.13;46.98242;96237.47;;;;
2022/03/20 04:13:57;;;;;;;27.5;16.65;;;;;;;-1.13;46.98242;96237.47;;;;
2022/03/20 04:15:02;;;;;;;27.5;16.65;;;;;;;-1.13;46.98242;96237.47;;;;
2022/03/20 04:16:05;;;;;;;27.5;16.65;;;;;;;-1.13;46.98242;96237.47;;;;
2022/03/20 04:17:06;;;;;;;27.5;16.65;;;;;;;-1.13;46.98242;96237.47;;;;
2022/03/20 04:18:08;;;;;;;27.5;16.65;;;;;;;-1.13;46.98242;96237.47;;;;
2022/03/20 04:19:10;;;;;;;27.5;16.65;;;;;;;-1.13;46.98242;96237.47;;;;
2022/03/20 04:20:10;;;;;;;28.85;17.6;;;;;;;-1.14;47.24414;96225.22;;;;
2022/03/20 04:21:11;;;;;;;28.85;17.6;;;;;;;-1.14;47.24414;96225.22;;;;
2022/03/20 04:22:12;;;;;;;28.85;17.6;;;;;;;-1.14;47.24414;96225.22;;;;
2022/03/20 04:23:45;;;;;;;28.85;17.6;;;;;;;-1.14;47.24414;96225.22;;;;
2022/03/20 04:24:46;;;;;;;28.85;17.6;;;;;;;-1.14;47.24414;96225.22;;;;
2022/03/20 04:25:46;;;;;;;28.85;17.6;;;;;;;-1.14;47.24414;96225.22;;;;
2022/03/20 04:26:47;;;;;;;28.85;17.6;;;;;;;-1.14;47.24414;96225.22;;;;
2022/03/20 04:27:47;;;;;;;28.85;17.6;;;;;;;-1.14;47.24414;96225.22;;;;
2022/03/20 04:28:48;;;;;;;28.85;17.6;;;;;;;-1.14;47.24414;96225.22;;;;
2022/03/20 04:29:52;;;;;;;28.85;17.6;;;;;;;-1.14;47.24414;96225.22;;;;
2022/03/20 04:30:53;;;;;;;31.1;16.65;;;;;;;-1.04;47.49609;96235.3;;;;
2022/03/20 04:31:54;;;;;;;31.1;16.65;;;;;;;-1.04;47.49609;96235.3;;;;
2022/03/20 04:32:55;;;;;;;31.1;16.65;;;;;;;-1.04;47.49609;96235.3;;;;
2022/03/20 04:33:56;;;;;;;31.1;16.65;;;;;;;-1.04;47.49609;96235.3;;;;
2022/03/20 04:34:57;;;;;;;31.1;16.65;;;;;;;-1.04;47.49609;96235.3;;;;
2022/03/20 04:35:58;;;;;;;31.1;16.65;;;;;;;-1.04;47.49609;96235.3;;;;
2022/03/20 04:36:58;;;;;;;31.1;16.65;;;;;;;-1.04;47.49609;96235.3;;;;
2022/03/20 04:37:59;;;;;;;31.1;16.65;;;;;;;-1.04;47.49609;96235.3;;;;
2022/03/20 04:39:01;;;;;;;31.1;16.65;;;;;;;-1.04;47.49609;96235.3;;;;
2022/03/20 04:40:02;;;;;;;31.1;16.65;;;;;;;-1.04;47.49609;96235.3;;;;
2022/03/20 04:41:03;;;;;;;31.1;16.65;;;;;;;-1.04;47.49609;96235.3;;;;
2022/03/20 04:42:04;;;;;;;27.8;16.5;;;;;;;-1;47.55371;96241.99;;;;
2022/03/20 04:43:06;;;;;;;27.8;16.5;;;;;;;-1;47.55371;96241.99;;;;
2022/03/20 04:44:12;;;;;;;27.8;16.5;;;;;;;-1;47.55371;96241.99;;;;
2022/03/20 04:45:13;;;;;;;27.8;16.5;;;;;;;-1;47.55371;96241.99;;;;
2022/03/20 04:46:13;;;;;;;27.8;16.5;;;;;;;-1;47.55371;96241.99;;;;
2022/03/20 04:58:32;;;;;;;27.4;16.1;;;;;;;-0.97;47.58691;96246.19;;;;
2022/03/20 04:59:32;;;;;;;27.4;16.1;;;;;;;-0.97;47.58691;96246.19;;;;
2022/03/20 05:00:33;;;;;;;27.4;16.1;;;;;;;-0.97;47.58691;96246.19;;;;
2022/03/20 05:01:33;;;;;;;27.4;16.1;;;;;;;-0.97;47.58691;96246.19;;;;
2022/03/20 05:02:34;;;;;;;27.4;16.1;;;;;;;-0.97;47.58691;96246.19;;;;
2022/03/20 05:03:35;;;;;;;25.25;15.1;;;;;;;-0.91;47.68848;96256.14;;;;
2022/03/20 05:04:37;;;;;;;25.25;15.1;;;;;;;-0.91;47.68848;96256.14;;;;
2022/03/20 05:05:38;;;;;;;25.25;15.1;;;;;;;-0.91;47.68848;96256.14;;;;
2022/03/20 05:06:38;;;;;;;25.25;15.1;;;;;;;-0.91;47.68848;96256.14;;;;
2022/03/20 05:07:39;;;;;;;25.25;15.1;;;;;;;-0.91;47.68848;96256.14;;;;
2022/03/20 05:08:40;;;;;;;25.25;15.1;;;;;;;-0.91;47.68848;96256.14;;;;
2022/03/20 05:14:52;;;;;;;26.5;15.6;;;;;;;-0.84;47.78125;96269.17;;;;
2022/03/20 05:15:56;;;;;;;26.5;15.6;;;;;;;-0.84;47.78125;96269.17;;;;
2022/03/20 05:16:57;;;;;;;26.5;15.6;;;;;;;-0.84;47.78125;96269.17;;;;
2022/03/20 05:17:57;;;;;;;26.5;15.6;;;;;;;-0.84;47.78125;96269.17;;;;
2022/03/20 05:18:58;;;;;;;26.5;15.6;;;;;;;-0.84;47.78125;96269.17;;;;
2022/03/20 05:19:58;;;;;;;26.5;15.6;;;;;;;-0.84;47.78125;96269.17;;;;
2022/03/20 05:20:59;;;;;;;26.5;15.6;;;;;;;-0.84;47.78125;96269.17;;;;
2022/03/20 05:22:01;;;;;;;26.5;15.6;;;;;;;-0.84;47.78125;96269.17;;;;
2022/03/20 05:23:02;;;;;;;26.5;15.6;;;;;;;-0.84;47.78125;96269.17;;;;
2022/03/20 05:24:03;;;;;;;26.5;16.25;;;;;;;-0.86;47.76758;96283.53;;;;
2022/03/20 05:25:07;;;;;;;26.5;16.25;;;;;;;-0.86;47.76758;96283.53;;;;
2022/03/20 05:26:09;;;;;;;26.5;16.25;;;;;;;-0.86;47.76758;96283.53;;;;
2022/03/20 05:27:09;;;;;;;26.5;16.25;;;;;;;-0.86;47.76758;96283.53;;;;
2022/03/20 05:28:10;;;;;;;26.5;16.25;;;;;;;-0.86;47.76758;96283.53;;;;
2022/03/20 05:29:10;;;;;;;26.5;16.25;;;;;;;-0.86;47.76758;96283.53;;;;
2022/03/20 05:30:11;;;;;;;26.5;16.25;;;;;;;-0.86;47.76758;96283.53;;;;
2022/03/20 05:31:12;;;;;;;26.5;16.25;;;;;;;-0.86;47.76758;96283.53;;;;
2022/03/20 05:32:13;;;;;;;26.5;16.25;;;;;;;-0.86;47.76758;96283.53;;;;
2022/03/20 05:33:16;;;;;;;26.5;16.25;;;;;;;-0.86;47.76758;96283.53;;;;
2022/03/20 05:34:17;;;;;;;26.5;16.25;;;;;;;-0.86;47.76758;96283.53;;;;
2022/03/20 05:35:17;;;;;;;26.7;16.35;;;;;;;-0.97;47.88184;96283.2;;;;
2022/03/20 05:36:18;;;;;;;26.7;16.35;;;;;;;-0.97;47.88184;96283.2;;;;
2022/03/20 05:37:19;;;;;;;26.7;16.35;;;;;;;-0.97;47.88184;96283.2;;;;
2022/03/20 05:38:19;;;;;;;26.7;16.35;;;;;;;-0.97;47.88184;96283.2;;;;
2022/03/20 05:39:20;;;;;;;26.7;16.35;;;;;;;-0.97;47.88184;96283.2;;;;
2022/03/20 05:40:20;;;;;;;26.7;16.35;;;;;;;-0.97;47.88184;96283.2;;;;
2022/03/20 05:41:53;;;;;;;26.7;16.35;;;;;;;-0.97;47.88184;96283.2;;;;
2022/03/20 05:42:54;;;;;;;26.7;16.35;;;;;;;-0.97;47.88184;96283.2;;;;
2022/03/20 05:43:54;;;;;;;26.7;16.35;;;;;;;-0.97;47.88184;96283.2;;;;
2022/03/20 05:44:55;;;;;;;26.7;16.35;;;;;;;-0.97;47.88184;96283.2;;;;
2022/03/20 05:45:57;;;;;;;29.85;16.5;;;;;;;-0.92;47.9502;96288.09;;;;
2022/03/20 05:46:58;;;;;;;29.85;16.5;;;;;;;-0.92;47.9502;96288.09;;;;
2022/03/20 05:47:59;;;;;;;29.85;16.5;;;;;;;-0.92;47.9502;96288.09;;;;
2022/03/20 05:49:00;;;;;;;29.85;16.5;;;;;;;-0.92;47.9502;96288.09;;;;
2022/03/20 05:50:01;;;;;;;29.85;16.5;;;;;;;-0.92;47.9502;96288.09;;;;
2022/03/20 05:51:03;;;;;;;29.85;16.5;;;;;;;-0.92;47.9502;96288.09;;;;
2022/03/20 05:52:04;;;;;;;29.85;16.5;;;;;;;-0.92;47.9502;96288.09;;;;
2022/03/20 05:53:06;;;;;;;29.85;16.5;;;;;;;-0.92;47.9502;96288.09;;;;
2022/03/20 05:54:06;;;;;;;29.85;16.5;;;;;;;-0.92;47.9502;96288.09;;;;
2022/03/20 05:55:07;;;;;;;29.85;16.5;;;;;;;-0.92;47.9502;96288.09;;;;
2022/03/20 06:01:23;;;;;;;28.95;16;;;;;;;-0.79;47.99707;96296.98;;;;
2022/03/20 06:02:24;;;;;;;28.95;16;;;;;;;-0.79;47.99707;96296.98;;;;
2022/03/20 06:03:24;;;;;;;28.95;16;;;;;;;-0.79;47.99707;96296.98;;;;
2022/03/20 06:04:25;;;;;;;28.95;16;;;;;;;-0.79;47.99707;96296.98;;;;
2022/03/20 06:05:25;;;;;;;28.95;16;;;;;;;-0.79;47.99707;96296.98;;;;
2022/03/20 06:06:26;;;;;;;28.95;16;;;;;;;-0.79;47.99707;96296.98;;;;
2022/03/20 06:07:26;;;;;;;27.9;16.9;;;;;;;-0.68;47.97656;96313.64;;;;
2022/03/20 06:08:27;;;;;;;27.9;16.9;;;;;;;-0.68;47.97656;96313.64;;;;
2022/03/20 06:09:28;;;;;;;27.9;16.9;;;;;;;-0.68;47.97656;96313.64;;;;
2022/03/20 06:10:28;;;;;;;27.9;16.9;;;;;;;-0.68;47.97656;96313.64;;;;
2022/03/20 06:11:29;;;;;;;27.9;16.9;;;;;;;-0.68;47.97656;96313.64;;;;
2022/03/20 06:12:30;;;;;;;27.9;16.9;;;;;;;-0.68;47.97656;96313.64;;;;
2022/03/20 06:13:31;;;;;;;27.9;16.9;;;;;;;-0.68;47.97656;96313.64;;;;
2022/03/20 06:14:35;;;;;;;27.9;16.9;;;;;;;-0.68;47.97656;96313.64;;;;
2022/03/20 06:15:36;;;;;;;27.9;16.9;;;;;;;-0.68;47.97656;96313.64;;;;
2022/03/20 06:16:37;;;;;;;27.9;16.9;;;;;;;-0.68;47.97656;96313.64;;;;
2022/03/20 06:17:38;;;;;;;26.75;16.25;;;;;;;-0.44;47.97363;96317.58;;;;
2022/03/20 06:18:42;;;;;;;26.75;16.25;;;;;;;-0.44;47.97363;96317.58;;;;